sensor_id;sensor_type;location;lat;lon;timestamp;temperature;humidity
38784;DHT22;24531;45.502;12.238;2022-11-09T00:02:10;13.30;94.50
38784;DHT22;24531;45.502;12.238;2022-11-09T00:04:35;13.30;94.60
38784;DHT22;24531;45.502;12.238;2022-11-09T00:07:01;13.30;94.70
38784;DHT22;24531;45.502;12.238;2022-11-09T00:09:27;13.30;94.60
38784;DHT22;24531;45.502;12.238;2022-11-09T00:11:53;13.30;94.60
38784;DHT22;24531;45.502;12.238;2022-11-09T00:14:19;13.20;94.60
38784;DHT22;24531;45.502;12.238;2022-11-09T00:16:44;13.20;94.60
38784;DHT22;24531;45.502;12.238;2022-11-09T00:19:10;13.30;94.70
38784;DHT22;24531;45.502;12.238;2022-11-09T00:21:37;13.20;94.60
38784;DHT22;24531;45.502;12.238;2022-11-09T00:24:03;13.20;94.60
38784;DHT22;24531;45.502;12.238;2022-11-09T00:26:29;13.20;94.70
38784;DHT22;24531;45.502;12.238;2022-11-09T00:28:55;13.20;94.70
38784;DHT22;24531;45.502;12.238;2022-11-09T00:31:22;13.20;94.70
38784;DHT22;24531;45.502;12.238;2022-11-09T00:33:53;13.20;94.60
38784;DHT22;24531;45.502;12.238;2022-11-09T00:36:20;13.20;94.70
38784;DHT22;24531;45.502;12.238;2022-11-09T00:38:51;13.20;94.70
38784;DHT22;24531;45.502;12.238;2022-11-09T00:41:17;13.20;94.70
38784;DHT22;24531;45.502;12.238;2022-11-09T00:43:43;13.30;94.70
38784;DHT22;24531;45.502;12.238;2022-11-09T00:46:09;13.30;94.70
38784;DHT22;24531;45.502;12.238;2022-11-09T00:48:35;13.30;94.70
38784;DHT22;24531;45.502;12.238;2022-11-09T00:51:01;13.40;94.70
38784;DHT22;24531;45.502;12.238;2022-11-09T00:53:27;13.40;94.60
38784;DHT22;24531;45.502;12.238;2022-11-09T00:58:27;13.60;94.60
38784;DHT22;24531;45.502;12.238;2022-11-09T01:00:54;13.60;94.50
38784;DHT22;24531;45.502;12.238;2022-11-09T01:03:20;13.70;94.50
38784;DHT22;24531;45.502;12.238;2022-11-09T01:05:47;13.70;94.50
38784;DHT22;24531;45.502;12.238;2022-11-09T01:08:12;13.70;94.50
38784;DHT22;24531;45.502;12.238;2022-11-09T01:10:40;13.70;94.50
38784;DHT22;24531;45.502;12.238;2022-11-09T01:13:07;13.70;94.50
38784;DHT22;24531;45.502;12.238;2022-11-09T01:15:32;13.70;94.50
38784;DHT22;24531;45.502;12.238;2022-11-09T01:17:58;13.70;94.50
38784;DHT22;24531;45.502;12.238;2022-11-09T01:20:24;13.60;94.60
38784;DHT22;24531;45.502;12.238;2022-11-09T01:22:49;13.60;94.60
38784;DHT22;24531;45.502;12.238;2022-11-09T01:25:15;13.60;94.60
38784;DHT22;24531;45.502;12.238;2022-11-09T01:27:40;13.60;94.60
38784;DHT22;24531;45.502;12.238;2022-11-09T01:30:07;13.70;94.60
38784;DHT22;24531;45.502;12.238;2022-11-09T01:32:32;13.70;94.60
38784;DHT22;24531;45.502;12.238;2022-11-09T01:34:58;13.70;94.60
38784;DHT22;24531;45.502;12.238;2022-11-09T01:37:24;13.70;94.60
38784;DHT22;24531;45.502;12.238;2022-11-09T01:39:49;13.60;94.60
38784;DHT22;24531;45.502;12.238;2022-11-09T01:42:22;13.60;94.60
38784;DHT22;24531;45.502;12.238;2022-11-09T01:47:46;13.60;94.70
38784;DHT22;24531;45.502;12.238;2022-11-09T01:50:20;13.60;94.70
38784;DHT22;24531;45.502;12.238;2022-11-09T01:52:49;13.60;94.70
38784;DHT22;24531;45.502;12.238;2022-11-09T01:55:19;13.60;94.70
38784;DHT22;24531;45.502;12.238;2022-11-09T02:00:17;13.60;94.80
38784;DHT22;24531;45.502;12.238;2022-11-09T02:02:52;13.60;94.80
38784;DHT22;24531;45.502;12.238;2022-11-09T02:05:24;13.60;94.80
38784;DHT22;24531;45.502;12.238;2022-11-09T02:07:51;13.60;94.80
38784;DHT22;24531;45.502;12.238;2022-11-09T02:12:52;13.60;94.80
38784;DHT22;24531;45.502;12.238;2022-11-09T02:15:19;13.70;94.90
38784;DHT22;24531;45.502;12.238;2022-11-09T02:17:49;13.70;94.90
38784;DHT22;24531;45.502;12.238;2022-11-09T02:20:16;13.70;94.90
38784;DHT22;24531;45.502;12.238;2022-11-09T02:22:42;13.70;94.70
38784;DHT22;24531;45.502;12.238;2022-11-09T02:25:13;13.70;94.80
38784;DHT22;24531;45.502;12.238;2022-11-09T02:27:41;13.70;94.70
38784;DHT22;24531;45.502;12.238;2022-11-09T02:30:07;13.70;94.70
38784;DHT22;24531;45.502;12.238;2022-11-09T02:32:34;13.70;94.80
38784;DHT22;24531;45.502;12.238;2022-11-09T02:35:00;13.60;94.70
38784;DHT22;24531;45.502;12.238;2022-11-09T02:39:55;13.60;94.80
38784;DHT22;24531;45.502;12.238;2022-11-09T02:42:22;13.60;94.80
38784;DHT22;24531;45.502;12.238;2022-11-09T02:44:51;13.60;94.80
38784;DHT22;24531;45.502;12.238;2022-11-09T02:47:17;13.50;94.80
38784;DHT22;24531;45.502;12.238;2022-11-09T02:49:43;13.50;94.90
38784;DHT22;24531;45.502;12.238;2022-11-09T02:52:08;13.50;94.90
38784;DHT22;24531;45.502;12.238;2022-11-09T02:54:34;13.60;94.90
38784;DHT22;24531;45.502;12.238;2022-11-09T02:57:00;13.60;94.80
38784;DHT22;24531;45.502;12.238;2022-11-09T02:59:25;13.50;94.70
38784;DHT22;24531;45.502;12.238;2022-11-09T03:01:51;13.50;94.80
38784;DHT22;24531;45.502;12.238;2022-11-09T03:04:16;13.50;94.80
38784;DHT22;24531;45.502;12.238;2022-11-09T03:06:42;13.50;94.80
38784;DHT22;24531;45.502;12.238;2022-11-09T03:09:10;13.50;94.80
38784;DHT22;24531;45.502;12.238;2022-11-09T03:11:37;13.50;94.80
38784;DHT22;24531;45.502;12.238;2022-11-09T03:14:03;13.50;94.80
38784;DHT22;24531;45.502;12.238;2022-11-09T03:16:29;13.50;94.90
38784;DHT22;24531;45.502;12.238;2022-11-09T03:18:54;13.50;94.80
38784;DHT22;24531;45.502;12.238;2022-11-09T03:21:21;13.50;94.80
38784;DHT22;24531;45.502;12.238;2022-11-09T03:23:48;13.50;94.90
38784;DHT22;24531;45.502;12.238;2022-11-09T03:26:13;13.60;94.90
38784;DHT22;24531;45.502;12.238;2022-11-09T03:28:39;13.60;94.90
38784;DHT22;24531;45.502;12.238;2022-11-09T03:31:05;13.70;94.90
38784;DHT22;24531;45.502;12.238;2022-11-09T03:33:31;13.70;94.80
38784;DHT22;24531;45.502;12.238;2022-11-09T03:35:56;13.70;94.90
38784;DHT22;24531;45.502;12.238;2022-11-09T03:38:22;13.70;94.90
38784;DHT22;24531;45.502;12.238;2022-11-09T03:40:48;13.70;95.20
38784;DHT22;24531;45.502;12.238;2022-11-09T03:43:13;13.80;94.90
38784;DHT22;24531;45.502;12.238;2022-11-09T03:45:39;13.80;94.80
38784;DHT22;24531;45.502;12.238;2022-11-09T03:48:05;13.80;94.80
38784;DHT22;24531;45.502;12.238;2022-11-09T03:50:33;13.80;94.80
38784;DHT22;24531;45.502;12.238;2022-11-09T03:53:00;13.80;94.90
38784;DHT22;24531;45.502;12.238;2022-11-09T03:55:27;13.80;94.90
38784;DHT22;24531;45.502;12.238;2022-11-09T03:57:53;13.80;94.80
38784;DHT22;24531;45.502;12.238;2022-11-09T04:00:20;13.90;94.80
38784;DHT22;24531;45.502;12.238;2022-11-09T04:02:47;13.90;94.80
38784;DHT22;24531;45.502;12.238;2022-11-09T04:05:13;13.90;94.70
38784;DHT22;24531;45.502;12.238;2022-11-09T04:07:40;13.90;94.80
38784;DHT22;24531;45.502;12.238;2022-11-09T04:10:10;13.90;94.70
38784;DHT22;24531;45.502;12.238;2022-11-09T04:12:36;13.90;94.70
38784;DHT22;24531;45.502;12.238;2022-11-09T04:15:02;14.00;94.60
38784;DHT22;24531;45.502;12.238;2022-11-09T04:17:27;14.00;94.60
38784;DHT22;24531;45.502;12.238;2022-11-09T04:19:53;14.00;94.60
38784;DHT22;24531;45.502;12.238;2022-11-09T04:22:19;14.10;94.50
38784;DHT22;24531;45.502;12.238;2022-11-09T04:24:44;14.10;94.50
38784;DHT22;24531;45.502;12.238;2022-11-09T04:27:10;14.10;94.50
38784;DHT22;24531;45.502;12.238;2022-11-09T04:29:36;14.10;94.50
38784;DHT22;24531;45.502;12.238;2022-11-09T04:32:01;14.20;94.50
38784;DHT22;24531;45.502;12.238;2022-11-09T04:34:27;14.20;94.50
38784;DHT22;24531;45.502;12.238;2022-11-09T04:36:52;14.20;94.40
38784;DHT22;24531;45.502;12.238;2022-11-09T04:39:18;14.20;94.40
38784;DHT22;24531;45.502;12.238;2022-11-09T04:41:44;14.10;94.40
38784;DHT22;24531;45.502;12.238;2022-11-09T04:44:09;14.10;94.40
38784;DHT22;24531;45.502;12.238;2022-11-09T04:46:35;14.10;94.40
38784;DHT22;24531;45.502;12.238;2022-11-09T04:49:01;14.10;94.40
38784;DHT22;24531;45.502;12.238;2022-11-09T04:51:26;14.00;94.60
38784;DHT22;24531;45.502;12.238;2022-11-09T04:53:52;14.00;94.60
38784;DHT22;24531;45.502;12.238;2022-11-09T04:56:18;14.10;94.60
38784;DHT22;24531;45.502;12.238;2022-11-09T04:58:43;14.10;94.50
38784;DHT22;24531;45.502;12.238;2022-11-09T05:01:11;14.20;94.50
38784;DHT22;24531;45.502;12.238;2022-11-09T05:03:37;14.20;94.50
38784;DHT22;24531;45.502;12.238;2022-11-09T05:06:03;14.20;94.40
38784;DHT22;24531;45.502;12.238;2022-11-09T05:08:49;14.20;94.40
38784;DHT22;24531;45.502;12.238;2022-11-09T05:11:15;14.20;94.40
38784;DHT22;24531;45.502;12.238;2022-11-09T05:13:40;14.20;94.40
38784;DHT22;24531;45.502;12.238;2022-11-09T05:16:06;14.20;94.40
38784;DHT22;24531;45.502;12.238;2022-11-09T05:18:32;14.20;94.30
38784;DHT22;24531;45.502;12.238;2022-11-09T05:20:58;14.30;94.30
38784;DHT22;24531;45.502;12.238;2022-11-09T05:23:24;14.30;94.30
38784;DHT22;24531;45.502;12.238;2022-11-09T05:26:08;14.30;94.30
38784;DHT22;24531;45.502;12.238;2022-11-09T05:28:34;14.30;94.20
38784;DHT22;24531;45.502;12.238;2022-11-09T05:30:59;14.30;94.30
38784;DHT22;24531;45.502;12.238;2022-11-09T05:33:25;14.30;94.30
38784;DHT22;24531;45.502;12.238;2022-11-09T05:35:53;14.30;94.30
38784;DHT22;24531;45.502;12.238;2022-11-09T05:38:19;14.30;94.30
38784;DHT22;24531;45.502;12.238;2022-11-09T05:40:47;14.30;94.30
38784;DHT22;24531;45.502;12.238;2022-11-09T05:43:13;14.30;94.30
38784;DHT22;24531;45.502;12.238;2022-11-09T05:45:39;14.30;94.40
38784;DHT22;24531;45.502;12.238;2022-11-09T05:48:05;14.30;94.40
38784;DHT22;24531;45.502;12.238;2022-11-09T05:50:31;14.30;94.40
38784;DHT22;24531;45.502;12.238;2022-11-09T05:53:00;14.40;94.30
38784;DHT22;24531;45.502;12.238;2022-11-09T05:55:26;14.30;94.30
38784;DHT22;24531;45.502;12.238;2022-11-09T05:57:52;14.30;94.40
38784;DHT22;24531;45.502;12.238;2022-11-09T06:00:18;14.40;94.40
38784;DHT22;24531;45.502;12.238;2022-11-09T06:02:44;14.40;94.40
38784;DHT22;24531;45.502;12.238;2022-11-09T06:05:09;14.40;94.30
38784;DHT22;24531;45.502;12.238;2022-11-09T06:07:35;14.40;94.30
38784;DHT22;24531;45.502;12.238;2022-11-09T06:10:01;14.40;94.30
38784;DHT22;24531;45.502;12.238;2022-11-09T06:12:26;14.50;94.30
38784;DHT22;24531;45.502;12.238;2022-11-09T06:14:52;14.50;94.30
38784;DHT22;24531;45.502;12.238;2022-11-09T06:17:17;14.50;94.40
38784;DHT22;24531;45.502;12.238;2022-11-09T06:19:43;14.50;94.30
38784;DHT22;24531;45.502;12.238;2022-11-09T06:22:09;14.50;94.30
38784;DHT22;24531;45.502;12.238;2022-11-09T06:24:34;14.50;94.30
38784;DHT22;24531;45.502;12.238;2022-11-09T06:27:00;14.40;94.30
38784;DHT22;24531;45.502;12.238;2022-11-09T06:29:26;14.40;94.50
38784;DHT22;24531;45.502;12.238;2022-11-09T06:31:53;14.40;94.50
38784;DHT22;24531;45.502;12.238;2022-11-09T06:34:19;14.40;94.50
38784;DHT22;24531;45.502;12.238;2022-11-09T06:36:45;14.40;94.40
38784;DHT22;24531;45.502;12.238;2022-11-09T06:39:11;14.40;94.40
38784;DHT22;24531;45.502;12.238;2022-11-09T06:41:36;14.50;94.40
38784;DHT22;24531;45.502;12.238;2022-11-09T06:44:02;14.50;94.40
38784;DHT22;24531;45.502;12.238;2022-11-09T06:46:30;14.60;94.40
38784;DHT22;24531;45.502;12.238;2022-11-09T06:48:56;14.70;94.40
38784;DHT22;24531;45.502;12.238;2022-11-09T06:51:22;14.70;94.30
38784;DHT22;24531;45.502;12.238;2022-11-09T06:53:47;14.70;94.30
38784;DHT22;24531;45.502;12.238;2022-11-09T06:56:13;14.80;94.30
38784;DHT22;24531;45.502;12.238;2022-11-09T06:58:39;14.80;94.30
38784;DHT22;24531;45.502;12.238;2022-11-09T07:01:09;14.80;94.20
38784;DHT22;24531;45.502;12.238;2022-11-09T07:03:35;14.90;94.30
38784;DHT22;24531;45.502;12.238;2022-11-09T07:06:04;14.90;94.20
38784;DHT22;24531;45.502;12.238;2022-11-09T07:08:30;14.90;94.20
38784;DHT22;24531;45.502;12.238;2022-11-09T07:11:02;14.90;94.20
38784;DHT22;24531;45.502;12.238;2022-11-09T07:13:28;14.80;94.20
38784;DHT22;24531;45.502;12.238;2022-11-09T07:15:53;14.90;94.20
38784;DHT22;24531;45.502;12.238;2022-11-09T07:18:19;14.90;94.10
38784;DHT22;24531;45.502;12.238;2022-11-09T07:20:45;14.90;94.10
38784;DHT22;24531;45.502;12.238;2022-11-09T07:23:11;14.90;94.10
38784;DHT22;24531;45.502;12.238;2022-11-09T07:25:37;15.00;94.10
38784;DHT22;24531;45.502;12.238;2022-11-09T07:28:06;15.00;94.10
38784;DHT22;24531;45.502;12.238;2022-11-09T07:30:33;15.00;94.00
38784;DHT22;24531;45.502;12.238;2022-11-09T07:33:00;15.10;94.00
38784;DHT22;24531;45.502;12.238;2022-11-09T07:35:26;15.10;93.90
38784;DHT22;24531;45.502;12.238;2022-11-09T07:37:52;15.10;94.00
38784;DHT22;24531;45.502;12.238;2022-11-09T07:40:18;15.20;94.00
38784;DHT22;24531;45.502;12.238;2022-11-09T07:42:44;15.30;94.00
38784;DHT22;24531;45.502;12.238;2022-11-09T07:45:10;15.40;93.90
38784;DHT22;24531;45.502;12.238;2022-11-09T07:47:35;15.40;93.80
38784;DHT22;24531;45.502;12.238;2022-11-09T07:50:02;15.60;93.80
38784;DHT22;24531;45.502;12.238;2022-11-09T07:52:28;15.70;93.70
38784;DHT22;24531;45.502;12.238;2022-11-09T07:54:53;15.70;93.70
38784;DHT22;24531;45.502;12.238;2022-11-09T07:57:19;15.80;93.60
38784;DHT22;24531;45.502;12.238;2022-11-09T07:59:45;15.80;93.60
38784;DHT22;24531;45.502;12.238;2022-11-09T10:04:02;17.20;92.00
38784;DHT22;24531;45.502;12.238;2022-11-09T10:06:42;17.30;91.90
38784;DHT22;24531;45.502;12.238;2022-11-09T10:30:59;17.80;91.30
38784;DHT22;24531;45.502;12.238;2022-11-09T10:33:27;17.90;91.30
38784;DHT22;24531;45.502;12.238;2022-11-09T10:36:15;18.00;91.30
38784;DHT22;24531;45.502;12.238;2022-11-09T10:38:49;18.10;91.30
38784;DHT22;24531;45.502;12.238;2022-11-09T10:41:38;18.10;91.30
38784;DHT22;24531;45.502;12.238;2022-11-09T10:44:04;18.20;91.20
38784;DHT22;24531;45.502;12.238;2022-11-09T10:46:31;18.30;91.10
38784;DHT22;24531;45.502;12.238;2022-11-09T11:23:17;17.90;90.90
38784;DHT22;24531;45.502;12.238;2022-11-09T11:26:23;17.90;90.80
38784;DHT22;24531;45.502;12.238;2022-11-09T11:32:44;18.00;90.90
38784;DHT22;24531;45.502;12.238;2022-11-09T11:56:25;17.70;90.80
38784;DHT22;24531;45.502;12.238;2022-11-09T11:59:05;17.70;90.80
38784;DHT22;24531;45.502;12.238;2022-11-09T12:01:48;17.80;90.90
38784;DHT22;24531;45.502;12.238;2022-11-09T12:20:52;18.10;90.60
38784;DHT22;24531;45.502;12.238;2022-11-09T12:29:20;18.30;90.50
38784;DHT22;24531;45.502;12.238;2022-11-09T12:33:00;18.30;90.50
38784;DHT22;24531;45.502;12.238;2022-11-09T12:35:20;18.20;90.40
38784;DHT22;24531;45.502;12.238;2022-11-09T12:37:56;18.20;90.40
38784;DHT22;24531;45.502;12.238;2022-11-09T12:40:30;18.20;90.40
38784;DHT22;24531;45.502;12.238;2022-11-09T12:45:33;18.40;90.40
38784;DHT22;24531;45.502;12.238;2022-11-09T12:48:26;18.40;90.30
38784;DHT22;24531;45.502;12.238;2022-11-09T12:53:34;18.50;90.10
38784;DHT22;24531;45.502;12.238;2022-11-09T12:58:36;18.50;89.90
38784;DHT22;24531;45.502;12.238;2022-11-09T13:03:56;18.40;89.30
38784;DHT22;24531;45.502;12.238;2022-11-09T13:09:03;18.40;89.20
38784;DHT22;24531;45.502;12.238;2022-11-09T13:11:39;18.30;89.20
38784;DHT22;24531;45.502;12.238;2022-11-09T13:16:41;18.40;89.30
38784;DHT22;24531;45.502;12.238;2022-11-09T13:19:07;18.40;89.20
38784;DHT22;24531;45.502;12.238;2022-11-09T13:21:35;18.40;88.90
38784;DHT22;24531;45.502;12.238;2022-11-09T13:27:01;18.40;88.80
38784;DHT22;24531;45.502;12.238;2022-11-09T13:29:28;18.50;88.30
38784;DHT22;24531;45.502;12.238;2022-11-09T13:34:47;18.50;88.40
38784;DHT22;24531;45.502;12.238;2022-11-09T13:46:03;18.40;88.10
38784;DHT22;24531;45.502;12.238;2022-11-09T14:41:14;18.30;90.10
38784;DHT22;24531;45.502;12.238;2022-11-09T14:52:02;18.40;90.40
38784;DHT22;24531;45.502;12.238;2022-11-09T14:54:29;18.30;90.60
38784;DHT22;24531;45.502;12.238;2022-11-09T14:56:55;18.30;90.60
38784;DHT22;24531;45.502;12.238;2022-11-09T14:59:30;18.30;90.80
38784;DHT22;24531;45.502;12.238;2022-11-09T15:02:05;18.30;90.90
38784;DHT22;24531;45.502;12.238;2022-11-09T15:07:25;18.30;91.10
38784;DHT22;24531;45.502;12.238;2022-11-09T15:09:59;18.30;91.10
38784;DHT22;24531;45.502;12.238;2022-11-09T15:12:26;18.20;91.30
38784;DHT22;24531;45.502;12.238;2022-11-09T15:14:56;18.10;91.40
38784;DHT22;24531;45.502;12.238;2022-11-09T15:17:26;18.20;91.70
38784;DHT22;24531;45.502;12.238;2022-11-09T15:27:36;18.10;92.10
38784;DHT22;24531;45.502;12.238;2022-11-09T15:33:56;18.00;92.20
38784;DHT22;24531;45.502;12.238;2022-11-09T15:36:26;17.80;92.10
38784;DHT22;24531;45.502;12.238;2022-11-09T15:41:55;17.70;92.20
38784;DHT22;24531;45.502;12.238;2022-11-09T15:44:22;17.80;92.20
38784;DHT22;24531;45.502;12.238;2022-11-09T15:46:51;17.80;92.00
38784;DHT22;24531;45.502;12.238;2022-11-09T15:49:26;17.80;92.10
38784;DHT22;24531;45.502;12.238;2022-11-09T15:51:53;17.70;92.00
38784;DHT22;24531;45.502;12.238;2022-11-09T15:54:21;17.70;91.90
38784;DHT22;24531;45.502;12.238;2022-11-09T15:56:47;17.70;91.90
38784;DHT22;24531;45.502;12.238;2022-11-09T15:59:22;17.80;92.00
38784;DHT22;24531;45.502;12.238;2022-11-09T16:01:51;17.80;92.00
38784;DHT22;24531;45.502;12.238;2022-11-09T16:04:16;17.90;91.90
38784;DHT22;24531;45.502;12.238;2022-11-09T16:06:42;17.80;91.80
38784;DHT22;24531;45.502;12.238;2022-11-09T16:09:08;17.70;91.90
38784;DHT22;24531;45.502;12.238;2022-11-09T16:11:33;17.70;91.90
38784;DHT22;24531;45.502;12.238;2022-11-09T16:14:00;17.60;91.90
38784;DHT22;24531;45.502;12.238;2022-11-09T16:16:26;17.60;92.00
38784;DHT22;24531;45.502;12.238;2022-11-09T16:22:31;17.60;92.20
38784;DHT22;24531;45.502;12.238;2022-11-09T16:24:58;17.60;92.10
38784;DHT22;24531;45.502;12.238;2022-11-09T16:27:24;17.50;92.20
38784;DHT22;24531;45.502;12.238;2022-11-09T16:29:50;17.60;92.30
38784;DHT22;24531;45.502;12.238;2022-11-09T16:32:15;17.60;92.30
38784;DHT22;24531;45.502;12.238;2022-11-09T16:34:41;17.60;92.40
38784;DHT22;24531;45.502;12.238;2022-11-09T16:37:07;17.60;92.40
38784;DHT22;24531;45.502;12.238;2022-11-09T16:39:33;17.60;92.50
38784;DHT22;24531;45.502;12.238;2022-11-09T16:42:06;17.60;92.60
38784;DHT22;24531;45.502;12.238;2022-11-09T16:44:34;17.60;92.60
38784;DHT22;24531;45.502;12.238;2022-11-09T16:47:02;17.50;92.60
38784;DHT22;24531;45.502;12.238;2022-11-09T16:49:30;17.50;92.80
38784;DHT22;24531;45.502;12.238;2022-11-09T16:51:56;17.60;93.20
38784;DHT22;24531;45.502;12.238;2022-11-09T16:54:21;17.60;92.80
38784;DHT22;24531;45.502;12.238;2022-11-09T16:56:47;17.70;92.80
38784;DHT22;24531;45.502;12.238;2022-11-09T16:59:13;17.70;92.80
38784;DHT22;24531;45.502;12.238;2022-11-09T17:01:39;17.70;92.90
38784;DHT22;24531;45.502;12.238;2022-11-09T17:04:05;17.60;93.00
38784;DHT22;24531;45.502;12.238;2022-11-09T17:06:34;17.70;93.00
38784;DHT22;24531;45.502;12.238;2022-11-09T17:12:22;17.70;93.20
38784;DHT22;24531;45.502;12.238;2022-11-09T17:14:48;17.70;93.10
38784;DHT22;24531;45.502;12.238;2022-11-09T17:17:13;17.70;93.30
38784;DHT22;24531;45.502;12.238;2022-11-09T17:19:39;17.70;93.30
38784;DHT22;24531;45.502;12.238;2022-11-09T17:22:05;17.70;93.30
38784;DHT22;24531;45.502;12.238;2022-11-09T17:24:41;17.70;93.30
38784;DHT22;24531;45.502;12.238;2022-11-09T17:27:08;17.70;93.30
38784;DHT22;24531;45.502;12.238;2022-11-09T17:29:36;17.70;93.30
38784;DHT22;24531;45.502;12.238;2022-11-09T17:32:07;17.60;93.30
38784;DHT22;24531;45.502;12.238;2022-11-09T17:34:33;17.50;93.50
38784;DHT22;24531;45.502;12.238;2022-11-09T17:36:58;17.40;93.70
38784;DHT22;24531;45.502;12.238;2022-11-09T17:39:24;17.40;93.70
38784;DHT22;24531;45.502;12.238;2022-11-09T17:41:49;17.50;93.80
38784;DHT22;24531;45.502;12.238;2022-11-09T17:44:15;17.50;93.90
38784;DHT22;24531;45.502;12.238;2022-11-09T17:46:41;17.50;93.90
38784;DHT22;24531;45.502;12.238;2022-11-09T17:49:07;17.60;93.90
38784;DHT22;24531;45.502;12.238;2022-11-09T17:51:33;17.60;93.90
38784;DHT22;24531;45.502;12.238;2022-11-09T17:53:58;17.60;93.90
38784;DHT22;24531;45.502;12.238;2022-11-09T17:56:30;17.60;93.90
38784;DHT22;24531;45.502;12.238;2022-11-09T17:58:56;17.60;94.00
38784;DHT22;24531;45.502;12.238;2022-11-09T18:01:22;17.50;94.00
38784;DHT22;24531;45.502;12.238;2022-11-09T18:03:48;17.40;94.10
38784;DHT22;24531;45.502;12.238;2022-11-09T18:06:23;17.40;94.20
38784;DHT22;24531;45.502;12.238;2022-11-09T18:08:49;17.30;94.10
38784;DHT22;24531;45.502;12.238;2022-11-09T18:11:15;17.40;94.10
38784;DHT22;24531;45.502;12.238;2022-11-09T18:13:41;17.30;94.20
38784;DHT22;24531;45.502;12.238;2022-11-09T18:16:10;17.30;94.30
38784;DHT22;24531;45.502;12.238;2022-11-09T18:18:36;17.30;94.40
38784;DHT22;24531;45.502;12.238;2022-11-09T18:21:09;17.30;94.40
38784;DHT22;24531;45.502;12.238;2022-11-09T18:23:35;17.30;94.40
38784;DHT22;24531;45.502;12.238;2022-11-09T18:26:02;17.40;94.50
38784;DHT22;24531;45.502;12.238;2022-11-09T18:28:28;17.30;94.40
38784;DHT22;24531;45.502;12.238;2022-11-09T18:31:02;17.30;94.50
38784;DHT22;24531;45.502;12.238;2022-11-09T18:33:28;17.30;94.50
38784;DHT22;24531;45.502;12.238;2022-11-09T18:35:56;17.30;94.50
38784;DHT22;24531;45.502;12.238;2022-11-09T18:38:22;17.30;94.40
38784;DHT22;24531;45.502;12.238;2022-11-09T18:41:09;17.20;94.30
38784;DHT22;24531;45.502;12.238;2022-11-09T18:43:34;17.10;94.50
38784;DHT22;24531;45.502;12.238;2022-11-09T18:46:07;17.10;94.60
38784;DHT22;24531;45.502;12.238;2022-11-09T18:48:33;17.00;94.50
38784;DHT22;24531;45.502;12.238;2022-11-09T18:51:00;17.10;94.50
38784;DHT22;24531;45.502;12.238;2022-11-09T18:53:28;16.90;94.60
38784;DHT22;24531;45.502;12.238;2022-11-09T18:55:59;16.90;94.70
38784;DHT22;24531;45.502;12.238;2022-11-09T18:58:25;16.90;94.70
38784;DHT22;24531;45.502;12.238;2022-11-09T19:01:00;16.90;94.90
38784;DHT22;24531;45.502;12.238;2022-11-09T19:03:26;16.90;94.90
38784;DHT22;24531;45.502;12.238;2022-11-09T19:05:52;17.00;94.90
38784;DHT22;24531;45.502;12.238;2022-11-09T19:08:19;17.00;94.80
38784;DHT22;24531;45.502;12.238;2022-11-09T19:11:05;17.00;94.80
38784;DHT22;24531;45.502;12.238;2022-11-09T19:13:32;17.00;94.90
38784;DHT22;24531;45.502;12.238;2022-11-09T19:15:58;17.00;94.90
38784;DHT22;24531;45.502;12.238;2022-11-09T19:18:23;17.00;94.90
38784;DHT22;24531;45.502;12.238;2022-11-09T19:20:49;17.00;94.90
38784;DHT22;24531;45.502;12.238;2022-11-09T19:23:14;17.00;94.90
38784;DHT22;24531;45.502;12.238;2022-11-09T19:25:40;17.00;95.00
38784;DHT22;24531;45.502;12.238;2022-11-09T19:28:06;16.90;95.00
38784;DHT22;24531;45.502;12.238;2022-11-09T19:30:32;16.90;95.10
38784;DHT22;24531;45.502;12.238;2022-11-09T19:32:57;16.90;95.20
38784;DHT22;24531;45.502;12.238;2022-11-09T19:35:23;16.90;95.10
38784;DHT22;24531;45.502;12.238;2022-11-09T19:37:49;16.90;95.10
38784;DHT22;24531;45.502;12.238;2022-11-09T19:43:36;17.00;95.20
38784;DHT22;24531;45.502;12.238;2022-11-09T19:46:05;17.00;95.10
38784;DHT22;24531;45.502;12.238;2022-11-09T19:48:32;17.00;95.10
38784;DHT22;24531;45.502;12.238;2022-11-09T19:51:00;17.00;95.10
38784;DHT22;24531;45.502;12.238;2022-11-09T19:53:26;17.00;95.10
38784;DHT22;24531;45.502;12.238;2022-11-09T20:27:38;16.90;95.10
38784;DHT22;24531;45.502;12.238;2022-11-09T20:30:10;16.90;95.20
38784;DHT22;24531;45.502;12.238;2022-11-09T20:32:58;16.90;95.20
38784;DHT22;24531;45.502;12.238;2022-11-09T20:35:56;16.80;95.30
38784;DHT22;24531;45.502;12.238;2022-11-09T20:43:51;16.80;95.30
38784;DHT22;24531;45.502;12.238;2022-11-09T20:52:25;16.90;95.30
38784;DHT22;24531;45.502;12.238;2022-11-09T20:54:51;16.80;95.30
38784;DHT22;24531;45.502;12.238;2022-11-09T20:57:19;16.80;95.30
38784;DHT22;24531;45.502;12.238;2022-11-09T21:08:41;16.80;95.40
38784;DHT22;24531;45.502;12.238;2022-11-09T21:11:26;16.80;95.40
38784;DHT22;24531;45.502;12.238;2022-11-09T21:22:44;16.90;95.30
38784;DHT22;24531;45.502;12.238;2022-11-09T21:25:59;16.80;95.30
38784;DHT22;24531;45.502;12.238;2022-11-09T21:28:53;16.80;95.30
38784;DHT22;24531;45.502;12.238;2022-11-09T21:38:37;16.80;95.30
38784;DHT22;24531;45.502;12.238;2022-11-09T21:41:07;16.80;95.40
38784;DHT22;24531;45.502;12.238;2022-11-09T21:44:12;16.80;95.30
38784;DHT22;24531;45.502;12.238;2022-11-09T21:46:42;16.80;95.30
38784;DHT22;24531;45.502;12.238;2022-11-09T21:49:39;16.70;95.30
38784;DHT22;24531;45.502;12.238;2022-11-09T21:52:30;16.80;95.40
38784;DHT22;24531;45.502;12.238;2022-11-09T21:55:05;16.80;95.40
38784;DHT22;24531;45.502;12.238;2022-11-09T21:57:31;16.80;95.40
38784;DHT22;24531;45.502;12.238;2022-11-09T21:59:56;16.80;95.30
38784;DHT22;24531;45.502;12.238;2022-11-09T22:02:22;16.90;95.30
38784;DHT22;24531;45.502;12.238;2022-11-09T22:05:00;16.80;95.30
38784;DHT22;24531;45.502;12.238;2022-11-09T22:07:46;16.80;95.30
38784;DHT22;24531;45.502;12.238;2022-11-09T22:10:11;16.80;95.20
